Time;durP1;ratioP1;P1;durP2;ratioP2;P2;SDS_P1;SDS_P2;PMS_P1;PMS_P2;Temp;Humidity;BMP_temperature;BMP_pressure;BME280_temperature;BME280_humidity;BME280_pressure;Samples;Min_cycle;Max_cycle;Signal;HPM_P1;HPM_P2
2021/12/11 00:00:41;;;;;;;13.70;5.75;;;3.80;99.90;;;;;;4960871;28;20027;-63
2021/12/11 00:03:23;;;;;;;18.85;6.85;;;3.80;99.90;;;;;;4961507;28;20058;-64
2021/12/11 00:06:05;;;;;;;13.98;5.47;;;3.90;99.90;;;;;;4963550;28;20036;-63
2021/12/11 00:08:32;;;;;;;13.50;5.63;;;3.90;99.90;;;;;;4963336;28;20411;-63
2021/12/11 00:11:03;;;;;;;16.40;5.80;;;3.90;99.90;;;;;;4966774;28;20525;-64
2021/12/11 00:13:32;;;;;;;13.30;5.20;;;3.90;99.90;;;;;;4960515;28;20113;-63
2021/12/11 00:15:59;;;;;;;13.95;5.75;;;3.80;99.90;;;;;;4964358;28;20078;-63
2021/12/11 00:18:27;;;;;;;21.63;7.38;;;3.90;99.90;;;;;;4966000;28;20085;-65
2021/12/11 00:21:02;;;;;;;16.45;5.35;;;3.90;99.90;;;;;;4961596;28;20054;-63
2021/12/11 00:23:36;;;;;;;15.43;5.75;;;3.90;99.90;;;;;;4945607;28;20395;-63
2021/12/11 00:26:03;;;;;;;12.63;5.47;;;3.90;99.90;;;;;;4966103;28;20122;-63
2021/12/11 00:28:29;;;;;;;11.18;4.97;;;3.90;99.90;;;;;;4946075;28;20101;-62
2021/12/11 00:30:56;;;;;;;13.43;5.30;;;3.90;99.90;;;;;;4962964;28;20031;-63
2021/12/11 00:33:32;;;;;;;18.73;5.68;;;3.90;99.90;;;;;;4961684;28;20042;-63
2021/12/11 00:35:58;;;;;;;10.50;5.28;;;3.90;99.90;;;;;;4958444;28;20055;-64
2021/12/11 00:38:32;;;;;;;13.43;6.10;;;3.80;99.90;;;;;;4962072;28;20116;-63
2021/12/11 00:40:59;;;;;;;10.48;4.57;;;3.80;99.90;;;;;;4956281;28;20466;-63
2021/12/11 00:43:29;;;;;;;8.90;4.70;;;3.70;99.90;;;;;;4961247;28;20042;-63
2021/12/11 00:45:57;;;;;;;14.55;5.22;;;3.70;99.90;;;;;;4961573;28;20135;-62
2021/12/11 00:48:25;;;;;;;11.15;4.80;;;3.70;99.90;;;;;;4963563;28;20086;-63
2021/12/11 00:51:12;;;;;;;11.75;4.95;;;3.60;99.90;;;;;;4968358;28;20380;-62
2021/12/11 00:53:56;;;;;;;10.20;4.50;;;3.60;99.90;;;;;;4954217;28;20042;-63
2021/12/11 00:56:29;;;;;;;14.23;5.93;;;3.70;99.90;;;;;;4962474;28;20038;-62
2021/12/11 00:58:59;;;;;;;15.02;4.78;;;3.70;99.90;;;;;;4963628;28;20031;-64
2021/12/11 01:01:46;;;;;;;9.05;4.85;;;3.70;99.90;;;;;;4959367;28;20451;-64
2021/12/11 01:04:23;;;;;;;13.55;4.78;;;3.80;99.90;;;;;;4960736;28;20046;-63
2021/12/11 01:06:53;;;;;;;14.63;6.22;;;3.80;99.90;;;;;;4961646;28;20054;-63
2021/12/11 01:09:24;;;;;;;16.05;6.32;;;3.80;99.90;;;;;;4962413;28;20492;-62
2021/12/11 01:12:10;;;;;;;13.90;6.20;;;3.90;99.90;;;;;;4960776;28;20039;-65
2021/12/11 01:14:52;;;;;;;11.63;5.65;;;3.90;99.90;;;;;;4959415;28;20095;-65
2021/12/11 01:17:38;;;;;;;14.50;5.40;;;3.90;99.90;;;;;;4961219;28;20403;-63
2021/12/11 01:20:15;;;;;;;15.25;5.88;;;3.90;99.90;;;;;;4968417;28;20089;-64
2021/12/11 01:22:42;;;;;;;14.20;5.68;;;4.00;99.90;;;;;;4958442;28;20038;-63
2021/12/11 01:25:24;;;;;;;15.85;5.30;;;4.00;99.90;;;;;;4959872;28;20039;-63
2021/12/11 01:27:54;;;;;;;11.70;5.50;;;4.00;99.90;;;;;;4956406;28;20513;-63
2021/12/11 01:30:34;;;;;;;12.57;5.32;;;4.00;99.90;;;;;;4960958;28;20495;-65
2021/12/11 01:33:01;;;;;;;10.75;4.85;;;4.00;99.90;;;;;;4958892;28;20546;-63
2021/12/11 01:35:27;;;;;;;11.80;5.38;;;4.00;99.90;;;;;;4944529;28;20487;-64
2021/12/11 01:38:10;;;;;;;14.57;5.93;;;4.00;99.90;;;;;;4963419;28;20034;-63
2021/12/11 01:40:37;;;;;;;12.27;5.75;;;4.00;99.90;;;;;;4963338;28;20042;-64
2021/12/11 01:43:06;;;;;;;17.02;5.95;;;4.00;99.90;;;;;;4963387;28;20510;-64
2021/12/11 01:45:35;;;;;;;14.90;5.25;;;4.00;99.90;;;;;;4963332;28;20086;-63
2021/12/11 01:48:02;;;;;;;12.40;5.07;;;4.00;99.90;;;;;;4946438;28;20142;-63
2021/12/11 01:50:33;;;;;;;14.75;5.57;;;4.00;99.90;;;;;;4959047;28;20539;-65
2021/12/11 01:52:59;;;;;;;11.02;5.68;;;4.00;99.90;;;;;;4959217;28;20528;-64
2021/12/11 01:55:35;;;;;;;16.63;6.78;;;4.00;99.90;;;;;;4959370;28;20043;-63
2021/12/11 01:58:03;;;;;;;12.45;5.30;;;4.10;99.90;;;;;;4962955;28;20047;-62
2021/12/11 02:00:46;;;;;;;16.30;6.18;;;4.10;99.90;;;;;;4958857;28;20043;-63
2021/12/11 02:03:17;;;;;;;16.30;5.45;;;4.10;99.90;;;;;;4960015;28;20291;-63
2021/12/11 02:05:43;;;;;;;14.95;5.32;;;4.10;99.90;;;;;;4960431;28;20427;-63
2021/12/11 02:08:14;;;;;;;16.92;5.75;;;4.10;99.90;;;;;;4960066;28;20073;-63
2021/12/11 02:10:54;;;;;;;14.57;5.88;;;4.10;99.90;;;;;;4963856;28;20039;-62
2021/12/11 02:13:35;;;;;;;12.40;5.88;;;4.10;99.90;;;;;;4961720;28;20042;-64
2021/12/11 02:16:03;;;;;;;10.55;4.68;;;4.10;99.90;;;;;;4967079;28;20077;-65
2021/12/11 02:18:36;;;;;;;18.20;6.45;;;4.10;99.90;;;;;;4962494;28;20388;-63
2021/12/11 02:21:10;;;;;;;10.70;5.22;;;4.10;99.90;;;;;;4959479;28;20042;-63
2021/12/11 02:23:36;;;;;;;14.70;5.63;;;4.10;99.90;;;;;;4962985;28;20122;-63
2021/12/11 02:26:10;;;;;;;13.23;5.53;;;4.10;99.90;;;;;;4962577;28;20553;-63
2021/12/11 02:28:50;;;;;;;16.80;6.25;;;4.10;99.90;;;;;;4958789;28;20053;-62
2021/12/11 02:31:27;;;;;;;14.93;5.18;;;4.00;99.90;;;;;;4966986;28;20039;-65
2021/12/11 02:34:10;;;;;;;14.38;5.85;;;4.00;99.90;;;;;;4959634;28;20135;-63
2021/12/11 02:36:42;;;;;;;11.90;5.40;;;4.10;99.90;;;;;;4958402;28;20045;-63
2021/12/11 02:39:13;;;;;;;14.60;5.72;;;4.10;99.90;;;;;;4958886;28;20109;-63
2021/12/11 02:42:13;;;;;;;16.17;6.78;;;4.10;99.90;;;;;;4959265;28;20031;-64
2021/12/11 02:44:59;;;;;;;16.08;6.25;;;4.10;99.90;;;;;;4950294;28;20031;-63
2021/12/11 02:47:36;;;;;;;15.18;6.22;;;4.20;99.90;;;;;;4958188;28;20039;-63
2021/12/11 02:50:12;;;;;;;13.32;6.03;;;4.10;99.90;;;;;;4963021;28;20082;-62
2021/12/11 02:52:54;;;;;;;15.90;6.30;;;4.10;99.90;;;;;;4956936;28;20039;-64
2021/12/11 02:55:37;;;;;;;16.42;6.78;;;4.20;99.90;;;;;;4956720;28;20637;-63
2021/12/11 02:58:15;;;;;;;14.82;6.85;;;4.20;99.90;;;;;;4957855;28;20045;-65
2021/12/11 03:00:50;;;;;;;15.82;6.07;;;4.20;99.90;;;;;;4962392;28;20031;-62
2021/12/11 03:03:21;;;;;;;14.82;6.25;;;4.20;99.90;;;;;;4961860;28;20035;-65
2021/12/11 03:06:42;;;;;;;16.55;6.00;;;4.30;99.90;;;;;;4959068;28;20394;-64
2021/12/11 03:08:36;;;;;;;20.73;6.70;;;4.30;99.90;;;;;;4955912;28;20066;-62
2021/12/11 03:11:07;;;;;;;13.30;6.43;;;4.30;99.90;;;;;;4966455;28;20073;-63
2021/12/11 03:13:37;;;;;;;14.90;6.68;;;4.30;99.90;;;;;;4961057;28;20673;-63
2021/12/11 03:16:04;;;;;;;13.25;6.95;;;4.30;99.90;;;;;;4957437;28;20050;-62
2021/12/11 03:18:30;;;;;;;19.67;6.07;;;4.30;99.90;;;;;;4957721;28;20063;-63
2021/12/11 03:20:55;;;;;;;15.57;6.55;;;4.30;99.90;;;;;;4957835;28;20069;-63
2021/12/11 03:23:21;;;;;;;14.27;6.75;;;4.30;99.90;;;;;;4956783;28;20031;-64
2021/12/11 03:25:49;;;;;;;16.02;8.13;;;4.30;99.90;;;;;;4959766;28;20041;-62
2021/12/11 03:28:18;;;;;;;17.48;7.40;;;4.30;99.90;;;;;;4957616;28;20043;-64
2021/12/11 03:30:51;;;;;;;18.50;8.52;;;4.30;99.90;;;;;;4956912;28;20463;-64
2021/12/11 03:33:18;;;;;;;16.35;7.97;;;4.30;99.90;;;;;;4961564;28;20031;-65
2021/12/11 03:35:45;;;;;;;18.25;6.90;;;4.30;99.90;;;;;;4955981;28;20086;-64
2021/12/11 03:38:12;;;;;;;18.05;8.23;;;4.30;99.90;;;;;;4959171;28;20035;-63
2021/12/11 03:40:39;;;;;;;22.25;8.90;;;4.30;99.90;;;;;;4961423;28;20034;-63
2021/12/11 03:43:08;;;;;;;19.98;7.68;;;4.30;99.90;;;;;;4960347;28;20515;-63
2021/12/11 03:45:38;;;;;;;20.23;8.52;;;4.30;99.90;;;;;;4958794;28;20032;-63
2021/12/11 03:48:09;;;;;;;23.33;8.70;;;4.40;99.90;;;;;;4961825;28;20043;-65
2021/12/11 03:50:36;;;;;;;19.75;8.82;;;4.40;99.90;;;;;;4960154;28;20039;-63
2021/12/11 03:53:01;;;;;;;21.75;9.38;;;4.30;99.90;;;;;;4957132;28;20047;-65
2021/12/11 03:55:35;;;;;;;19.05;8.32;;;4.30;99.90;;;;;;4956702;28;20044;-63
2021/12/11 03:58:01;;;;;;;23.70;9.25;;;4.30;99.90;;;;;;4961243;28;20043;-64
2021/12/11 04:00:33;;;;;;;19.08;8.27;;;4.30;99.90;;;;;;4959994;28;20038;-63
2021/12/11 04:03:04;;;;;;;19.98;8.10;;;4.30;99.90;;;;;;4961317;28;20527;-63
2021/12/11 04:05:36;;;;;;;22.33;9.88;;;4.30;99.90;;;;;;4956269;28;20123;-65
2021/12/11 04:08:03;;;;;;;24.63;10.40;;;4.30;99.90;;;;;;4961028;28;20077;-63
2021/12/11 04:10:29;;;;;;;22.08;9.25;;;4.40;99.90;;;;;;4958224;28;20070;-63
2021/12/11 04:13:00;;;;;;;19.65;8.80;;;4.40;99.90;;;;;;4961401;28;20031;-63
2021/12/11 04:15:26;;;;;;;21.20;9.68;;;4.30;99.90;;;;;;4960742;28;20042;-63
2021/12/11 04:17:54;;;;;;;25.23;9.27;;;4.30;99.90;;;;;;4962413;28;20439;-63
2021/12/11 04:20:22;;;;;;;26.67;10.43;;;4.30;99.90;;;;;;4965943;28;20118;-63
2021/12/11 04:22:48;;;;;;;23.60;9.55;;;4.40;99.90;;;;;;4962279;28;20050;-65
2021/12/11 04:25:16;;;;;;;25.45;9.32;;;4.40;99.90;;;;;;4940318;28;20039;-64
2021/12/11 04:27:42;;;;;;;27.80;9.95;;;4.40;99.90;;;;;;4959709;28;20122;-63
2021/12/11 04:30:10;;;;;;;23.58;9.43;;;4.40;99.90;;;;;;4959177;28;20078;-65
2021/12/11 04:32:38;;;;;;;27.13;10.60;;;4.30;99.90;;;;;;4963200;28;20102;-63
2021/12/11 04:35:07;;;;;;;25.35;10.73;;;4.30;99.90;;;;;;4949574;28;20040;-63
2021/12/11 04:37:34;;;;;;;19.50;9.32;;;4.30;99.90;;;;;;4960048;28;20495;-63
2021/12/11 04:40:07;;;;;;;24.60;9.68;;;4.30;99.90;;;;;;4968050;28;20065;-63
2021/12/11 04:42:48;;;;;;;21.23;9.68;;;4.30;99.90;;;;;;4964276;28;20387;-63
2021/12/11 04:45:22;;;;;;;26.73;10.70;;;4.30;99.90;;;;;;4967343;28;20035;-63
2021/12/11 04:48:01;;;;;;;26.30;9.68;;;4.30;99.90;;;;;;4968601;28;20039;-63
2021/12/11 04:50:43;;;;;;;23.95;10.18;;;4.30;99.90;;;;;;4949614;28;20089;-63
2021/12/11 04:53:27;;;;;;;21.73;9.65;;;4.30;99.90;;;;;;4960474;28;20139;-63
2021/12/11 05:11:01;;;;;;;26.42;10.35;;;4.20;99.90;;;;;;4964368;28;20086;-64
2021/12/11 05:13:29;;;;;;;27.65;11.38;;;4.20;99.90;;;;;;4960183;28;20796;-63
2021/12/11 05:16:02;;;;;;;26.33;9.63;;;4.20;99.90;;;;;;4960341;28;20043;-64
2021/12/11 05:18:30;;;;;;;23.23;9.07;;;4.20;99.90;;;;;;4966078;28;20067;-63
2021/12/11 05:20:59;;;;;;;22.20;9.18;;;4.30;99.90;;;;;;4960608;28;20106;-62
2021/12/11 05:23:25;;;;;;;26.27;8.55;;;4.30;99.90;;;;;;4959417;28;20085;-63
2021/12/11 05:25:52;;;;;;;24.83;8.52;;;4.30;99.90;;;;;;4960221;28;20043;-63
2021/12/11 05:28:18;;;;;;;27.48;9.13;;;4.30;99.90;;;;;;4963272;28;20430;-62
2021/12/11 05:30:48;;;;;;;21.67;9.23;;;4.30;99.90;;;;;;4959478;28;20035;-64
2021/12/11 05:33:15;;;;;;;28.55;10.35;;;4.30;99.90;;;;;;4959991;28;20082;-64
2021/12/11 05:35:42;;;;;;;20.48;9.05;;;4.40;99.90;;;;;;4962421;28;20063;-65
2021/12/11 05:38:11;;;;;;;19.75;9.00;;;4.40;99.90;;;;;;4960960;28;20031;-67
2021/12/11 05:40:41;;;;;;;25.85;9.25;;;4.40;99.90;;;;;;4961778;28;20098;-63
2021/12/11 05:43:07;;;;;;;22.00;8.55;;;4.50;99.90;;;;;;4961044;28;20034;-63
2021/12/11 05:45:33;;;;;;;20.73;8.68;;;4.50;99.90;;;;;;4956442;28;20050;-63
2021/12/11 05:47:59;;;;;;;24.63;10.15;;;4.50;99.90;;;;;;4959704;28;20043;-63
2021/12/11 05:50:35;;;;;;;25.67;9.55;;;4.50;99.90;;;;;;4958522;28;20050;-64
2021/12/11 05:53:02;;;;;;;23.27;10.40;;;4.50;99.90;;;;;;4958877;28;20135;-63
2021/12/11 05:55:30;;;;;;;22.63;8.43;;;4.50;99.90;;;;;;4961134;28;20035;-62
2021/12/11 05:57:58;;;;;;;22.27;8.90;;;4.50;99.90;;;;;;4959893;28;20035;-62
2021/12/11 06:00:34;;;;;;;20.13;8.23;;;4.60;99.90;;;;;;4958616;28;20117;-63
2021/12/11 06:03:03;;;;;;;22.90;8.07;;;4.60;99.90;;;;;;4959552;28;20035;-64
2021/12/11 06:05:29;;;;;;;17.67;8.20;;;4.60;99.90;;;;;;4953757;28;20062;-63
2021/12/11 06:07:55;;;;;;;24.35;9.00;;;4.60;99.90;;;;;;4945821;28;20503;-62
2021/12/11 06:10:22;;;;;;;21.60;8.45;;;4.60;99.90;;;;;;4941748;28;20167;-63
2021/12/11 06:12:51;;;;;;;18.25;8.27;;;4.60;99.90;;;;;;4959933;28;20031;-63
2021/12/11 06:15:18;;;;;;;20.08;7.28;;;4.60;99.90;;;;;;4962287;28;20116;-63
2021/12/11 06:17:46;;;;;;;21.38;8.27;;;4.60;99.90;;;;;;4959317;28;20047;-62
2021/12/11 06:20:15;;;;;;;19.13;6.93;;;4.50;99.90;;;;;;4959157;28;20062;-62
2021/12/11 06:22:41;;;;;;;19.80;8.00;;;4.50;99.90;;;;;;4944396;28;20654;-62
2021/12/11 06:25:16;;;;;;;25.48;7.35;;;4.50;99.90;;;;;;4960049;28;20513;-62
2021/12/11 06:27:44;;;;;;;21.98;6.82;;;4.60;99.90;;;;;;4962118;28;20046;-63
2021/12/11 06:30:11;;;;;;;14.77;5.72;;;4.60;99.90;;;;;;4958674;28;20035;-63
2021/12/11 06:32:37;;;;;;;18.02;6.28;;;4.70;99.90;;;;;;4943974;28;20102;-63
2021/12/11 06:35:14;;;;;;;16.58;7.13;;;4.70;99.90;;;;;;4960382;28;20494;-62
2021/12/11 06:37:40;;;;;;;15.35;5.57;;;4.70;99.90;;;;;;4961778;28;20046;-63
2021/12/11 06:40:06;;;;;;;11.50;4.90;;;4.70;99.90;;;;;;4960126;28;20105;-62
2021/12/11 06:42:32;;;;;;;14.57;6.15;;;4.80;99.90;;;;;;4959548;28;20093;-62
2021/12/11 06:44:58;;;;;;;16.23;4.97;;;4.80;99.90;;;;;;4960770;28;20043;-62
2021/12/11 06:47:24;;;;;;;12.65;4.28;;;4.80;99.90;;;;;;4958734;28;20053;-63
2021/12/11 06:49:49;;;;;;;15.32;4.45;;;4.80;99.90;;;;;;4961974;28;20073;-62
2021/12/11 06:52:19;;;;;;;12.85;3.67;;;4.90;99.90;;;;;;4958403;28;20427;-63
2021/12/11 06:54:47;;;;;;;8.50;2.43;;;4.90;99.90;;;;;;4962261;28;20475;-62
2021/12/11 06:57:13;;;;;;;8.73;2.45;;;5.20;99.90;;;;;;4961821;28;20031;-62
2021/12/11 06:59:39;;;;;;;12.55;2.20;;;5.30;99.90;;;;;;4958425;28;20035;-62
2021/12/11 07:02:05;;;;;;;14.35;4.28;;;5.50;99.90;;;;;;4961104;28;20554;-62
2021/12/11 07:04:31;;;;;;;14.63;3.25;;;5.60;99.90;;;;;;4959007;28;20027;-63
2021/12/11 07:06:57;;;;;;;12.57;4.20;;;5.60;99.90;;;;;;4959045;28;20035;-64
2021/12/11 07:09:25;;;;;;;14.02;5.15;;;5.60;99.90;;;;;;4964188;28;20085;-63
2021/12/11 07:11:52;;;;;;;13.32;5.38;;;5.50;99.90;;;;;;4959174;28;20110;-63
2021/12/11 07:14:20;;;;;;;16.23;4.70;;;5.50;99.90;;;;;;4960595;28;20031;-63
2021/12/11 07:16:47;;;;;;;18.25;6.05;;;5.50;99.90;;;;;;4958661;28;20035;-62
2021/12/11 07:19:14;;;;;;;19.52;6.85;;;5.50;99.90;;;;;;4961587;28;20583;-62
2021/12/11 07:21:43;;;;;;;20.95;7.07;;;5.50;99.90;;;;;;4957484;28;20086;-62
2021/12/11 07:24:13;;;;;;;17.67;5.95;;;5.50;99.90;;;;;;4960913;28;20038;-63
2021/12/11 07:26:39;;;;;;;25.48;6.85;;;5.40;99.90;;;;;;4958437;28;20094;-62
2021/12/11 07:29:10;;;;;;;22.73;6.65;;;5.30;99.90;;;;;;4967291;28;20046;-63
2021/12/11 07:31:36;;;;;;;22.92;7.07;;;5.10;99.90;;;;;;4960048;28;20050;-64
2021/12/11 07:34:02;;;;;;;19.15;7.55;;;5.00;99.90;;;;;;4959334;28;20161;-62
2021/12/11 07:36:29;;;;;;;26.85;9.32;;;5.00;99.90;;;;;;4959292;28;20039;-62
2021/12/11 07:38:55;;;;;;;19.38;7.90;;;4.90;99.90;;;;;;4960406;28;20042;-62
2021/12/11 07:41:22;;;;;;;18.25;7.32;;;4.80;99.90;;;;;;4958795;28;20439;-63
2021/12/11 07:43:49;;;;;;;18.05;7.18;;;4.60;99.90;;;;;;4963370;28;20395;-63
2021/12/11 07:46:18;;;;;;;30.75;8.95;;;4.60;99.90;;;;;;4963602;28;20035;-62
2021/12/11 07:48:46;;;;;;;26.05;11.00;;;4.60;99.90;;;;;;4966720;28;20042;-62
2021/12/11 07:51:13;;;;;;;24.42;8.90;;;4.50;99.90;;;;;;4962060;28;20031;-63
2021/12/11 07:53:39;;;;;;;18.60;7.88;;;4.50;99.90;;;;;;4959027;28;20078;-62
2021/12/11 07:56:05;;;;;;;20.10;8.63;;;4.40;99.90;;;;;;4955952;28;20089;-62
2021/12/11 07:58:33;;;;;;;21.75;8.55;;;4.40;99.90;;;;;;4959604;28;20779;-62
2021/12/11 08:01:00;;;;;;;28.63;8.82;;;4.40;99.90;;;;;;4962789;28;20040;-62
2021/12/11 08:03:26;;;;;;;25.38;10.15;;;4.40;99.90;;;;;;4956753;28;20545;-63
2021/12/11 08:05:53;;;;;;;22.52;8.80;;;4.40;99.90;;;;;;4957508;28;20031;-62
2021/12/11 08:08:21;;;;;;;25.58;9.40;;;4.40;99.90;;;;;;4958144;28;20039;-63
2021/12/11 08:10:51;;;;;;;25.55;9.68;;;4.40;99.90;;;;;;4963992;28;20067;-62
2021/12/11 08:13:17;;;;;;;32.30;11.15;;;4.40;99.90;;;;;;4960301;28;20046;-62
2021/12/11 08:15:44;;;;;;;23.13;9.07;;;4.40;99.90;;;;;;4963423;28;20031;-63
2021/12/11 08:18:12;;;;;;;23.73;8.98;;;4.40;99.90;;;;;;4960051;28;20557;-63
2021/12/11 08:20:40;;;;;;;22.88;8.27;;;4.40;99.90;;;;;;4961840;28;20403;-64
2021/12/11 08:23:06;;;;;;;21.55;8.45;;;4.40;99.90;;;;;;4961674;28;20081;-63
2021/12/11 08:25:34;;;;;;;20.88;8.48;;;4.40;99.90;;;;;;4962914;28;20039;-62
2021/12/11 08:28:01;;;;;;;24.98;8.93;;;4.40;99.90;;;;;;4960748;28;20047;-63
2021/12/11 08:30:29;;;;;;;26.80;9.27;;;4.30;99.90;;;;;;4963567;28;20035;-63
2021/12/11 08:32:54;;;;;;;22.08;8.75;;;4.30;99.90;;;;;;4977696;28;20480;-64
2021/12/11 08:35:20;;;;;;;21.00;7.65;;;4.30;99.90;;;;;;4963648;28;20078;-63
2021/12/11 08:37:49;;;;;;;24.67;8.88;;;4.30;99.90;;;;;;4966085;28;20551;-63
2021/12/11 08:40:19;;;;;;;22.23;8.45;;;4.20;99.90;;;;;;4960823;28;20031;-63
2021/12/11 08:42:46;;;;;;;22.20;8.20;;;4.30;99.90;;;;;;4960974;28;20384;-63
2021/12/11 08:45:21;;;;;;;23.08;8.20;;;4.20;99.90;;;;;;4963271;28;20395;-63
2021/12/11 08:47:48;;;;;;;32.33;9.32;;;4.20;99.90;;;;;;4967253;28;20035;-62
2021/12/11 08:50:19;;;;;;;24.58;10.10;;;4.10;99.90;;;;;;4960818;28;20051;-63
2021/12/11 08:52:45;;;;;;;;;;;4.10;99.90;;;;;;4964242;28;20129;-62
2021/12/11 08:55:16;;;;;;;27.52;8.52;;;4.10;99.90;;;;;;4959640;28;19914;-62
2021/12/11 08:57:42;;;;;;;;;;;4.10;99.90;;;;;;4963184;28;20035;-62
2021/12/11 09:00:23;;;;;;;18.48;7.78;;;4.10;99.90;;;;;;4962704;28;20064;-63
2021/12/11 09:02:57;;;;;;;21.38;8.88;;;4.10;99.90;;;;;;4963228;28;20070;-62
2021/12/11 09:05:31;;;;;;;22.50;8.35;;;4.00;99.90;;;;;;4960769;28;20027;-62
2021/12/11 09:08:03;;;;;;;21.65;8.05;;;4.00;99.90;;;;;;4963997;28;20434;-62
2021/12/11 09:10:37;;;;;;;26.05;9.10;;;4.00;99.90;;;;;;4959215;28;20068;-63
2021/12/11 09:13:25;;;;;;;23.20;8.48;;;3.90;99.90;;;;;;4963042;28;20073;-62
2021/12/11 09:16:00;;;;;;;20.27;9.18;;;3.90;99.90;;;;;;4962958;28;20046;-62
2021/12/11 09:18:32;;;;;;;27.13;9.50;;;4.00;99.90;;;;;;4960997;28;20431;-62
2021/12/11 09:21:25;;;;;;;23.90;9.88;;;4.00;99.90;;;;;;4958688;28;20054;-62
2021/12/11 09:24:05;;;;;;;22.40;9.07;;;4.00;99.90;;;;;;4960626;28;20030;-62
2021/12/11 09:26:49;;;;;;;20.27;8.95;;;4.10;99.90;;;;;;4964908;28;20047;-62
2021/12/11 09:29:35;;;;;;;30.13;10.40;;;4.20;99.90;;;;;;4962705;28;20050;-62
2021/12/11 09:32:17;;;;;;;22.48;8.80;;;4.30;99.90;;;;;;4961930;28;20499;-63
2021/12/11 09:35:03;;;;;;;18.20;9.07;;;4.40;99.90;;;;;;4960839;28;20570;-62
2021/12/11 09:37:31;;;;;;;24.55;10.55;;;4.50;99.90;;;;;;4958806;28;20881;-62
2021/12/11 09:40:15;;;;;;;24.88;9.40;;;4.50;99.90;;;;;;4964234;28;20053;-62
2021/12/11 09:42:40;;;;;;;21.15;8.98;;;4.50;99.90;;;;;;4957608;28;20668;-62
2021/12/11 09:45:11;;;;;;;27.05;9.43;;;4.60;99.90;;;;;;4964516;28;20113;-63
2021/12/11 09:47:41;;;;;;;22.58;9.30;;;4.60;99.90;;;;;;4961525;28;20114;-62
2021/12/11 09:50:16;;;;;;;22.23;10.35;;;4.70;99.90;;;;;;4962263;28;20487;-62
2021/12/11 09:52:46;;;;;;;25.40;10.52;;;4.80;99.90;;;;;;4957839;28;20035;-62
2021/12/11 09:55:28;;;;;;;23.50;10.43;;;4.90;99.90;;;;;;4961939;28;20036;-62
2021/12/11 09:57:58;;;;;;;31.98;11.27;;;4.90;99.90;;;;;;4967662;28;20047;-62
2021/12/11 10:00:32;;;;;;;28.80;9.57;;;5.00;99.90;;;;;;4958939;28;20066;-63
2021/12/11 10:03:00;;;;;;;33.38;9.98;;;5.10;99.90;;;;;;4964762;28;20042;-63
2021/12/11 10:05:44;;;;;;;24.60;11.95;;;5.10;99.90;;;;;;4955564;28;20035;-63
2021/12/11 10:08:32;;;;;;;25.40;10.18;;;5.10;99.90;;;;;;4954357;28;20415;-62
2021/12/11 10:11:09;;;;;;;21.92;9.82;;;5.20;99.90;;;;;;4955984;28;20067;-63
2021/12/11 10:13:46;;;;;;;23.60;10.30;;;5.20;99.90;;;;;;4944272;28;20055;-62
2021/12/11 10:16:13;;;;;;;28.30;10.80;;;5.20;99.90;;;;;;4954812;28;20035;-62
2021/12/11 10:18:40;;;;;;;24.73;9.77;;;5.30;99.90;;;;;;4954122;28;22770;-62
2021/12/11 10:21:12;;;;;;;71.18;11.55;;;5.30;99.90;;;;;;4954730;28;20031;-63
2021/12/11 10:23:40;;;;;;;23.55;9.77;;;5.30;99.90;;;;;;4956179;28;20810;-62
2021/12/11 10:26:10;;;;;;;36.90;11.13;;;5.30;99.90;;;;;;4951977;28;20038;-62
2021/12/11 10:28:42;;;;;;;23.58;10.35;;;5.30;99.90;;;;;;4959775;28;20403;-62
2021/12/11 10:31:18;;;;;;;32.75;12.75;;;5.30;99.90;;;;;;4954988;28;20066;-62
2021/12/11 10:33:44;;;;;;;26.83;10.20;;;5.40;99.90;;;;;;4958991;28;20050;-62
2021/12/11 10:36:13;;;;;;;27.45;11.27;;;5.40;99.90;;;;;;4955422;28;20095;-64
2021/12/11 10:38:39;;;;;;;22.58;9.98;;;5.40;99.90;;;;;;4954880;28;20201;-62
2021/12/11 10:41:09;;;;;;;29.58;10.82;;;5.50;99.90;;;;;;4958813;28;20110;-62
2021/12/11 10:43:47;;;;;;;28.52;10.27;;;5.50;99.90;;;;;;4956236;28;20066;-63
2021/12/11 10:46:15;;;;;;;27.23;9.40;;;5.60;99.90;;;;;;4951052;28;20045;-62
2021/12/11 10:48:42;;;;;;;31.55;10.60;;;5.60;99.90;;;;;;4954454;28;20043;-63
2021/12/11 10:51:34;;;;;;;25.52;11.10;;;5.70;99.90;;;;;;4945056;28;20502;-62
2021/12/11 10:54:00;;;;;;;27.67;9.82;;;5.70;99.90;;;;;;4947925;28;20042;-63
2021/12/11 10:56:27;;;;;;;25.90;10.65;;;5.80;99.90;;;;;;4961147;28;20030;-62
2021/12/11 10:59:00;;;;;;;23.30;10.77;;;5.90;99.90;;;;;;4959896;28;20135;-62
2021/12/11 11:01:46;;;;;;;22.70;10.07;;;6.00;99.90;;;;;;4956487;28;20069;-62
2021/12/11 11:04:38;;;;;;;27.20;10.50;;;6.10;99.90;;;;;;4962252;28;20042;-62
2021/12/11 11:07:05;;;;;;;24.95;9.77;;;6.20;99.90;;;;;;4962784;28;20518;-62
2021/12/11 11:09:32;;;;;;;19.80;10.00;;;6.20;99.90;;;;;;4961388;28;20126;-63
2021/12/11 11:12:02;;;;;;;23.33;8.82;;;6.40;99.90;;;;;;4964498;28;20070;-63
2021/12/11 11:14:30;;;;;;;24.88;9.18;;;6.40;99.90;;;;;;4963268;28;20041;-63
2021/12/11 11:16:59;;;;;;;26.50;10.88;;;6.50;99.90;;;;;;4960253;28;20042;-63
2021/12/11 11:19:27;;;;;;;19.73;8.57;;;6.60;99.90;;;;;;4961377;28;20118;-63
2021/12/11 11:22:00;;;;;;;20.15;8.32;;;6.70;99.90;;;;;;4958103;28;20042;-62
2021/12/11 11:24:30;;;;;;;21.27;9.25;;;6.80;99.90;;;;;;4959503;28;20035;-63
2021/12/11 11:26:56;;;;;;;;;;;6.90;99.90;;;;;;4965499;28;20036;-62
2021/12/11 11:29:24;;;;;;;22.20;9.00;;;6.90;99.90;;;;;;4960203;28;19924;-63
2021/12/11 11:31:53;;;;;;;15.27;6.70;;;6.90;99.90;;;;;;4959091;28;20023;-63
2021/12/11 11:34:21;;;;;;;19.80;8.15;;;6.90;99.90;;;;;;4959946;28;20039;-62
2021/12/11 11:36:50;;;;;;;19.52;7.88;;;6.90;99.90;;;;;;4958816;28;20034;-62
2021/12/11 11:39:18;;;;;;;19.40;9.10;;;6.80;99.90;;;;;;4959816;28;20059;-62
2021/12/11 11:41:48;;;;;;;18.88;7.65;;;6.80;99.90;;;;;;4959113;28;20035;-62
2021/12/11 11:44:19;;;;;;;19.17;9.02;;;6.80;99.90;;;;;;4959005;28;20031;-63
2021/12/11 11:46:44;;;;;;;;;;;6.80;99.90;;;;;;4960342;28;20062;-63
2021/12/11 11:49:16;;;;;;;17.67;7.50;;;6.80;99.90;;;;;;4958138;28;19918;-63
2021/12/11 11:51:49;;;;;;;16.35;8.07;;;6.80;99.90;;;;;;4960704;28;20553;-62
2021/12/11 11:54:19;;;;;;;19.17;8.30;;;6.70;99.90;;;;;;4959698;28;20122;-64
2021/12/11 11:56:50;;;;;;;23.05;7.72;;;6.70;99.90;;;;;;4960474;28;20031;-63
2021/12/11 11:59:16;;;;;;;15.68;6.50;;;6.70;99.90;;;;;;4958574;28;20031;-63
2021/12/11 12:01:51;;;;;;;15.10;7.20;;;6.70;99.90;;;;;;4961440;28;20053;-63
2021/12/11 12:04:18;;;;;;;13.55;7.20;;;6.70;99.90;;;;;;4958407;28;20035;-62
2021/12/11 12:06:48;;;;;;;20.10;7.20;;;6.60;99.90;;;;;;4959551;28;20039;-63
2021/12/11 12:09:16;;;;;;;14.60;6.57;;;6.60;99.90;;;;;;4960306;28;20066;-63
2021/12/11 12:11:42;;;;;;;15.75;6.45;;;6.60;99.90;;;;;;4959045;28;20086;-62
2021/12/11 12:14:16;;;;;;;14.82;5.72;;;6.60;99.90;;;;;;4959656;28;20031;-62
2021/12/11 12:16:44;;;;;;;18.25;6.55;;;6.70;99.90;;;;;;4958677;28;20035;-61
2021/12/11 12:19:10;;;;;;;13.70;5.95;;;6.60;99.90;;;;;;4960361;28;20038;-63
2021/12/11 12:21:42;;;;;;;12.68;5.45;;;6.70;99.90;;;;;;4961957;28;20031;-62
2021/12/11 12:24:08;;;;;;;17.73;5.78;;;6.70;99.90;;;;;;4957220;28;20039;-62
2021/12/11 12:26:35;;;;;;;14.88;5.90;;;6.70;99.90;;;;;;4956946;28;20094;-62
2021/12/11 12:29:03;;;;;;;14.30;5.72;;;6.70;99.90;;;;;;4959081;28;20450;-62
2021/12/11 12:31:48;;;;;;;17.00;5.25;;;6.90;99.90;;;;;;4955657;28;20051;-62
2021/12/11 12:34:15;;;;;;;15.52;5.22;;;6.80;99.90;;;;;;4953260;28;20035;-63
2021/12/11 12:36:44;;;;;;;16.10;5.47;;;6.90;99.90;;;;;;4954644;28;20043;-63
2021/12/11 12:39:11;;;;;;;16.17;4.88;;;6.90;99.90;;;;;;4951071;28;20130;-63
2021/12/11 12:41:57;;;;;;;11.95;4.45;;;6.90;99.90;;;;;;4956828;28;20784;-63
2021/12/11 12:44:24;;;;;;;10.70;3.90;;;7.00;99.90;;;;;;4950113;28;20559;-62
2021/12/11 12:47:10;;;;;;;9.77;4.13;;;7.00;99.90;;;;;;4956724;28;20058;-62
2021/12/11 12:49:42;;;;;;;11.65;4.57;;;7.00;99.90;;;;;;4958369;28;20585;-63
2021/12/11 12:52:14;;;;;;;14.45;5.60;;;7.00;99.90;;;;;;4958034;28;20154;-62
2021/12/11 12:54:40;;;;;;;12.10;5.03;;;6.90;99.90;;;;;;4959096;28;20042;-62
2021/12/11 12:57:22;;;;;;;11.18;3.78;;;7.00;99.90;;;;;;4961281;28;20050;-62
2021/12/11 13:00:27;;;;;;;17.38;5.10;;;6.90;99.90;;;;;;4961251;28;20043;-63
2021/12/11 13:02:57;;;;;;;15.73;4.55;;;7.00;99.90;;;;;;4954959;28;20036;-62
2021/12/11 13:05:38;;;;;;;10.35;4.13;;;7.00;99.90;;;;;;4962994;28;20027;-63
2021/12/11 13:08:12;;;;;;;10.60;4.20;;;7.10;99.90;;;;;;4961812;28;20067;-62
2021/12/11 13:10:43;;;;;;;8.27;3.88;;;7.20;99.90;;;;;;4962153;28;20039;-63
2021/12/11 13:13:11;;;;;;;16.08;5.80;;;7.30;99.90;;;;;;4962360;28;20046;-67
2021/12/11 13:15:45;;;;;;;18.88;4.72;;;7.50;99.90;;;;;;4961397;28;20438;-63
2021/12/11 13:18:18;;;;;;;17.77;3.72;;;7.60;99.90;;;;;;4960093;28;20035;-62
2021/12/11 13:20:53;;;;;;;11.77;3.60;;;7.70;99.90;;;;;;4960044;28;20073;-62
2021/12/11 13:23:19;;;;;;;14.05;3.58;;;7.80;99.90;;;;;;4959022;28;20084;-63